Time;durP1;ratioP1;P1;durP2;ratioP2;P2;SDS_P1;SDS_P2;PMS_P1;PMS_P2;Temp;Humidity;BMP_temperature;BMP_pressure;BME280_temperature;BME280_humidity;BME280_pressure;Samples;Min_cycle;Max_cycle;Signal;HPM_P1;HPM_P2
2021/09/02 00:01:43;;;;;;;55.80;44.63;;;23.10;99.20;;;;;;4885244;29;20108;-81
2021/09/02 00:04:08;;;;;;;57.17;44.58;;;23.10;99.20;;;;;;4884903;29;20483;-82
2021/09/02 00:06:34;;;;;;;58.08;45.58;;;23.10;99.20;;;;;;4885430;29;20033;-82
2021/09/02 00:08:59;;;;;;;55.80;44.30;;;23.10;99.20;;;;;;4853047;29;20041;-82
2021/09/02 00:11:25;;;;;;;55.67;44.60;;;23.10;99.30;;;;;;4884545;29;20045;-81
2021/09/02 00:13:51;;;;;;;56.75;44.38;;;23.10;99.30;;;;;;4884897;29;20040;-81
2021/09/02 00:16:16;;;;;;;57.55;44.45;;;23.10;99.30;;;;;;4884506;29;20037;-81
2021/09/02 00:18:42;;;;;;;57.67;45.92;;;23.10;99.30;;;;;;4885395;29;20088;-81
2021/09/02 00:21:08;;;;;;;59.85;46.42;;;23.10;99.30;;;;;;4884669;29;20052;-82
2021/09/02 00:23:33;;;;;;;58.10;45.15;;;23.10;99.30;;;;;;4885033;29;20060;-82
2021/09/02 00:25:59;;;;;;;59.45;46.88;;;23.10;99.30;;;;;;4884891;29;20112;-81
2021/09/02 00:28:24;;;;;;;56.88;44.70;;;23.10;99.30;;;;;;4884739;29;20152;-81
2021/09/02 00:30:50;;;;;;;58.47;45.55;;;23.10;99.40;;;;;;4852880;29;20380;-81
2021/09/02 00:33:17;;;;;;;58.45;46.05;;;23.10;99.40;;;;;;4884489;29;20037;-81
2021/09/02 00:35:44;;;;;;;58.22;46.45;;;23.10;99.40;;;;;;4884695;29;20390;-81
2021/09/02 00:38:10;;;;;;;62.35;47.40;;;23.10;99.40;;;;;;4884656;29;20032;-82
2021/09/02 00:40:36;;;;;;;56.88;44.75;;;23.10;99.40;;;;;;4884864;29;20040;-82
2021/09/02 00:43:02;;;;;;;55.28;45.17;;;23.10;99.40;;;;;;4884928;29;20033;-81
2021/09/02 00:45:27;;;;;;;58.50;46.08;;;23.10;99.40;;;;;;4852474;29;20113;-81
2021/09/02 00:47:53;;;;;;;56.47;45.90;;;23.10;99.50;;;;;;4884594;29;20117;-81
2021/09/02 00:50:19;;;;;;;58.88;45.92;;;23.10;99.50;;;;;;4867607;29;20040;-83
2021/09/02 00:52:45;;;;;;;59.38;47.83;;;23.10;99.50;;;;;;4852745;29;20033;-82
2021/09/02 00:55:11;;;;;;;59.88;47.70;;;23.10;99.50;;;;;;4884246;29;20047;-84
2021/09/02 00:57:38;;;;;;;60.20;47.85;;;23.10;99.50;;;;;;4868157;29;20468;-82
2021/09/02 01:00:14;;;;;;;59.13;48.17;;;23.10;99.50;;;;;;4882566;29;20049;-81
2021/09/02 01:02:41;;;;;;;59.55;48.83;;;23.10;99.60;;;;;;4881924;29;20029;-81
2021/09/02 01:05:08;;;;;;;58.85;47.70;;;23.10;99.60;;;;;;4881785;29;20060;-81
2021/09/02 01:07:34;;;;;;;63.08;48.80;;;23.10;99.60;;;;;;4881402;29;20540;-82
2021/09/02 01:10:01;;;;;;;65.68;50.65;;;23.10;99.60;;;;;;4881495;29;20480;-81
2021/09/02 01:12:38;;;;;;;60.83;48.88;;;23.10;99.60;;;;;;4864605;29;20424;-82
2021/09/02 01:15:08;;;;;;;60.90;49.05;;;23.10;99.60;;;;;;4881579;29;20072;-81
2021/09/02 01:17:35;;;;;;;58.00;48.35;;;23.10;99.60;;;;;;4880994;29;20369;-82
2021/09/02 01:20:01;;;;;;;60.55;49.22;;;23.10;99.60;;;;;;4881402;29;20045;-81
2021/09/02 01:22:28;;;;;;;60.92;47.63;;;23.10;99.60;;;;;;4849072;29;20097;-81
2021/09/02 01:25:01;;;;;;;60.13;48.97;;;23.10;99.70;;;;;;4881503;29;20059;-81
2021/09/02 01:27:28;;;;;;;60.65;49.78;;;23.10;99.70;;;;;;4881278;29;20025;-82
2021/09/02 01:29:56;;;;;;;60.30;48.22;;;23.10;99.70;;;;;;4881150;29;20048;-82
2021/09/02 01:32:29;;;;;;;61.33;49.88;;;23.10;99.70;;;;;;4880723;29;20484;-82
2021/09/02 01:34:56;;;;;;;60.75;48.72;;;23.10;99.70;;;;;;4881702;29;20029;-82
2021/09/02 01:37:23;;;;;;;62.75;49.58;;;23.10;99.70;;;;;;4864374;29;20025;-82
2021/09/02 01:39:50;;;;;;;59.38;46.90;;;23.10;99.70;;;;;;4864617;29;20041;-82
2021/09/02 01:42:15;;;;;;;57.47;47.00;;;23.10;99.70;;;;;;4880886;29;20033;-88
2021/09/02 01:44:42;;;;;;;57.30;46.83;;;23.10;99.80;;;;;;4881078;29;20318;-82
2021/09/02 01:47:28;;;;;;;58.58;47.55;;;23.10;99.80;;;;;;4880783;29;20044;-82
2021/09/02 01:49:54;;;;;;;58.78;47.33;;;23.10;99.80;;;;;;4881107;29;20089;-82
2021/09/02 01:52:21;;;;;;;55.17;45.40;;;23.10;99.80;;;;;;4880647;29;20495;-82
2021/09/02 01:54:47;;;;;;;58.40;45.58;;;23.10;99.80;;;;;;4880911;29;20108;-82
2021/09/02 01:57:14;;;;;;;57.58;46.50;;;23.10;99.80;;;;;;4880873;29;20120;-82
2021/09/02 01:59:40;;;;;;;56.13;46.08;;;23.10;99.80;;;;;;4880413;29;20176;-82
2021/09/02 02:02:06;;;;;;;54.60;44.58;;;23.10;99.80;;;;;;4880557;29;20508;-83
2021/09/02 02:04:32;;;;;;;55.72;45.45;;;23.10;99.80;;;;;;4880517;29;20077;-83
2021/09/02 02:06:57;;;;;;;53.40;44.05;;;23.10;99.80;;;;;;4880472;29;20036;-82
2021/09/02 02:09:23;;;;;;;50.22;41.50;;;23.10;99.80;;;;;;4880418;29;20033;-82
2021/09/02 02:11:49;;;;;;;54.78;43.35;;;23.10;99.80;;;;;;4880207;29;20045;-82
2021/09/02 02:14:14;;;;;;;51.22;40.47;;;23.10;99.80;;;;;;4880633;29;20029;-82
2021/09/02 02:16:40;;;;;;;49.80;40.90;;;23.10;99.70;;;;;;4880449;29;20065;-82
2021/09/02 02:19:05;;;;;;;52.67;41.28;;;23.10;99.80;;;;;;4863806;29;20033;-82
2021/09/02 02:21:31;;;;;;;49.85;40.90;;;23.10;99.80;;;;;;4863219;29;20041;-82
2021/09/02 02:23:57;;;;;;;49.85;40.78;;;23.10;99.80;;;;;;4880173;29;20412;-82
2021/09/02 02:26:22;;;;;;;49.13;39.28;;;23.10;99.80;;;;;;4863289;29;20040;-83
2021/09/02 02:28:48;;;;;;;46.15;38.80;;;23.10;99.80;;;;;;4880375;29;20044;-82
2021/09/02 02:31:13;;;;;;;48.83;39.65;;;23.10;99.80;;;;;;4879960;29;20041;-82
2021/09/02 02:33:39;;;;;;;46.03;39.00;;;23.10;99.80;;;;;;4879747;29;20392;-82
2021/09/02 02:36:05;;;;;;;51.55;38.35;;;23.10;99.80;;;;;;4848219;29;20033;-82
2021/09/02 02:38:30;;;;;;;46.15;36.78;;;23.10;99.80;;;;;;4879846;29;20089;-83
2021/09/02 02:40:56;;;;;;;47.00;38.08;;;23.10;99.80;;;;;;4863444;29;20400;-82
2021/09/02 02:43:22;;;;;;;44.78;36.58;;;23.10;99.80;;;;;;4879888;29;20063;-88
2021/09/02 02:45:48;;;;;;;42.13;35.03;;;23.10;99.80;;;;;;4879746;29;20037;-82
2021/09/02 02:48:13;;;;;;;46.47;36.28;;;23.10;99.80;;;;;;4863401;29;20476;-82
2021/09/02 02:50:39;;;;;;;43.63;36.08;;;23.10;99.80;;;;;;4879717;29;20044;-82
2021/09/02 02:53:05;;;;;;;44.13;35.17;;;23.10;99.80;;;;;;4863189;29;20033;-82
2021/09/02 02:55:30;;;;;;;46.38;35.55;;;23.10;99.80;;;;;;4879622;29;20069;-83
2021/09/02 02:57:56;;;;;;;39.30;32.78;;;23.10;99.80;;;;;;4879565;29;20442;-82
2021/09/02 03:00:22;;;;;;;40.72;33.15;;;23.00;99.80;;;;;;4879730;29;20040;-83
2021/09/02 03:02:48;;;;;;;38.17;32.03;;;23.10;99.80;;;;;;4879224;29;20396;-82
2021/09/02 03:05:13;;;;;;;41.70;33.40;;;23.10;99.80;;;;;;4862847;29;20033;-82
2021/09/02 03:07:39;;;;;;;39.08;32.97;;;23.00;99.80;;;;;;4879364;29;20041;-83
2021/09/02 03:10:07;;;;;;;39.92;31.50;;;23.00;99.80;;;;;;4879390;29;20040;-82
2021/09/02 03:12:34;;;;;;;39.03;31.95;;;23.00;99.80;;;;;;4879291;29;20041;-82
2021/09/02 03:15:00;;;;;;;37.03;30.33;;;23.00;99.80;;;;;;4862855;29;20033;-82
2021/09/02 03:17:26;;;;;;;37.00;30.58;;;23.10;99.90;;;;;;4879031;29;20056;-88
2021/09/02 03:19:52;;;;;;;37.78;30.52;;;23.10;99.90;;;;;;4863026;29;20376;-82
2021/09/02 03:22:17;;;;;;;36.85;29.92;;;23.00;99.90;;;;;;4878680;29;20495;-82
2021/09/02 03:24:43;;;;;;;36.67;30.13;;;23.00;99.90;;;;;;4878702;29;20093;-82
2021/09/02 03:27:08;;;;;;;39.17;30.77;;;23.10;99.90;;;;;;4879313;29;20624;-82
2021/09/02 03:29:34;;;;;;;34.50;29.60;;;23.00;99.90;;;;;;4862505;29;20088;-82
2021/09/02 03:32:00;;;;;;;39.10;31.23;;;23.10;99.90;;;;;;4879126;29;20112;-82
2021/09/02 03:34:25;;;;;;;34.95;29.65;;;23.10;99.90;;;;;;4862530;29;20165;-82
2021/09/02 03:36:51;;;;;;;36.67;29.50;;;23.10;99.90;;;;;;4879304;29;20128;-82
2021/09/02 03:39:17;;;;;;;35.08;29.30;;;23.10;99.90;;;;;;4879330;29;20057;-82
2021/09/02 03:41:44;;;;;;;35.40;29.80;;;23.10;99.90;;;;;;4878862;29;20033;-82
2021/09/02 03:44:10;;;;;;;34.58;28.45;;;23.10;99.90;;;;;;4879065;29;20089;-82
2021/09/02 03:46:36;;;;;;;34.30;27.98;;;23.10;99.90;;;;;;4878754;29;20379;-82
2021/09/02 03:49:02;;;;;;;34.60;27.27;;;23.10;99.90;;;;;;4862563;29;20037;-82
2021/09/02 03:51:28;;;;;;;33.05;27.20;;;23.10;99.90;;;;;;4879136;29;20037;-82
2021/09/02 03:53:53;;;;;;;29.83;25.05;;;23.10;99.90;;;;;;4878609;29;20037;-82
2021/09/02 03:56:19;;;;;;;30.67;26.17;;;23.10;99.80;;;;;;4862471;29;20387;-82
2021/09/02 03:58:45;;;;;;;34.20;27.40;;;23.10;99.80;;;;;;4862162;29;20044;-82
2021/09/02 04:01:10;;;;;;;34.53;28.30;;;23.10;99.90;;;;;;4879070;29;20468;-82
2021/09/02 04:03:36;;;;;;;34.60;28.25;;;23.10;99.80;;;;;;4878482;29;20480;-82
2021/09/02 04:06:02;;;;;;;34.53;27.35;;;23.10;99.80;;;;;;4879104;29;20056;-82
2021/09/02 04:08:27;;;;;;;33.03;26.15;;;23.10;99.80;;;;;;4846998;29;20040;-82
2021/09/02 04:10:53;;;;;;;33.22;27.63;;;23.20;99.80;;;;;;4862022;29;20088;-82
2021/09/02 04:13:19;;;;;;;33.38;26.70;;;23.10;99.70;;;;;;4878986;29;20097;-82
2021/09/02 04:15:44;;;;;;;32.38;26.58;;;23.10;99.70;;;;;;4846615;29;20033;-82
2021/09/02 04:18:10;;;;;;;33.00;25.90;;;23.20;99.70;;;;;;4862384;29;20065;-82
2021/09/02 04:20:36;;;;;;;33.38;26.48;;;23.10;99.70;;;;;;4878496;29;20053;-83
2021/09/02 04:23:02;;;;;;;31.88;26.15;;;23.20;99.70;;;;;;4878705;29;20198;-82
2021/09/02 04:25:27;;;;;;;31.42;25.10;;;23.20;99.70;;;;;;4878866;29;20093;-82
2021/09/02 04:27:53;;;;;;;31.67;25.67;;;23.20;99.70;;;;;;4878513;29;20219;-83
2021/09/02 04:30:19;;;;;;;29.75;24.98;;;23.20;99.70;;;;;;4878912;29;20064;-82
2021/09/02 04:32:45;;;;;;;30.92;24.80;;;23.20;99.70;;;;;;4878551;29;20045;-81
2021/09/02 04:35:12;;;;;;;32.53;25.70;;;23.20;99.70;;;;;;4880997;29;20029;-82
2021/09/02 04:37:43;;;;;;;30.40;24.75;;;23.20;99.70;;;;;;4882264;29;20056;-83
2021/09/02 04:40:10;;;;;;;29.77;23.95;;;23.20;99.70;;;;;;4882130;29;20041;-82
2021/09/02 04:42:36;;;;;;;30.80;25.90;;;23.20;99.70;;;;;;4881663;29;20108;-83
2021/09/02 04:45:04;;;;;;;29.23;24.17;;;23.10;99.70;;;;;;4882035;29;20117;-81
2021/09/02 04:47:29;;;;;;;28.67;24.10;;;23.20;99.70;;;;;;4882054;29;20495;-82
2021/09/02 04:49:56;;;;;;;27.17;23.27;;;23.10;99.70;;;;;;4849749;29;20120;-82
2021/09/02 04:52:22;;;;;;;27.23;23.35;;;23.10;99.70;;;;;;4865546;29;20037;-82
2021/09/02 04:54:48;;;;;;;29.40;24.08;;;23.10;99.70;;;;;;4881663;29;20040;-82
2021/09/02 04:57:14;;;;;;;29.02;22.95;;;23.10;99.70;;;;;;4865316;29;20044;-82
2021/09/02 04:59:39;;;;;;;27.10;23.08;;;23.10;99.70;;;;;;4881568;29;20037;-83
2021/09/02 05:02:05;;;;;;;27.15;22.58;;;23.10;99.70;;;;;;4881821;29;20116;-82
2021/09/02 05:04:30;;;;;;;26.48;21.67;;;23.10;99.60;;;;;;4865190;29;20045;-82
2021/09/02 05:06:56;;;;;;;28.15;22.52;;;23.10;99.60;;;;;;4849417;29;20040;-82
2021/09/02 05:09:22;;;;;;;25.58;21.25;;;23.10;99.60;;;;;;4864919;29;20089;-82
2021/09/02 05:11:47;;;;;;;25.95;20.85;;;23.10;99.60;;;;;;4881438;29;20072;-82
2021/09/02 05:14:13;;;;;;;25.25;20.52;;;23.10;99.60;;;;;;4849780;29;20468;-82
2021/09/02 05:16:39;;;;;;;27.00;20.50;;;23.10;99.60;;;;;;4881575;29;20048;-87
2021/09/02 05:19:04;;;;;;;27.08;19.92;;;23.10;99.60;;;;;;4881634;29;20111;-82
2021/09/02 05:21:30;;;;;;;23.02;19.55;;;23.10;99.60;;;;;;4864600;29;20037;-82
2021/09/02 05:23:55;;;;;;;26.33;19.70;;;23.10;99.60;;;;;;4881101;29;20057;-82
2021/09/02 05:26:21;;;;;;;23.70;18.65;;;23.10;99.60;;;;;;4881217;29;20029;-82
2021/09/02 05:28:47;;;;;;;22.83;18.23;;;23.10;99.90;;;;;;4881232;29;20025;-82
2021/09/02 05:31:13;;;;;;;23.48;18.50;;;23.10;99.70;;;;;;4881226;29;20143;-83
2021/09/02 05:33:38;;;;;;;22.02;17.67;;;23.10;99.70;;;;;;4864591;29;20033;-82
2021/09/02 05:36:04;;;;;;;21.95;17.88;;;23.10;99.70;;;;;;4880707;29;20033;-82
2021/09/02 05:38:30;;;;;;;23.38;18.58;;;23.10;99.70;;;;;;4864467;29;20113;-82
2021/09/02 05:40:55;;;;;;;22.30;18.25;;;23.10;99.80;;;;;;4880851;29;20069;-82
2021/09/02 05:43:21;;;;;;;21.52;18.27;;;23.10;99.80;;;;;;4881480;29;20377;-82
2021/09/02 05:45:47;;;;;;;22.25;18.27;;;23.10;99.80;;;;;;4879915;29;20037;-82
2021/09/02 05:48:13;;;;;;;21.25;16.70;;;23.00;99.80;;;;;;4880963;29;20045;-83
2021/09/02 05:50:39;;;;;;;21.50;17.88;;;23.00;99.80;;;;;;4864395;29;20222;-82
2021/09/02 05:53:05;;;;;;;22.67;17.10;;;23.00;99.80;;;;;;4881062;29;20033;-82
2021/09/02 05:55:30;;;;;;;20.92;16.92;;;23.00;99.80;;;;;;4880594;29;20440;-82
2021/09/02 05:57:56;;;;;;;20.70;17.42;;;23.00;99.80;;;;;;4863742;29;20064;-82
2021/09/02 06:00:22;;;;;;;20.42;16.40;;;23.00;99.90;;;;;;4864118;29;20033;-83
2021/09/02 06:02:47;;;;;;;22.73;16.85;;;23.00;99.90;;;;;;4863855;29;20133;-81
2021/09/02 06:05:13;;;;;;;21.83;15.88;;;23.00;99.90;;;;;;4880498;29;20053;-81
2021/09/02 06:07:39;;;;;;;23.17;16.85;;;23.00;99.90;;;;;;4864085;29;20692;-82
2021/09/02 06:10:06;;;;;;;23.55;16.38;;;23.00;99.90;;;;;;4863849;29;20579;-82
2021/09/02 06:12:32;;;;;;;22.80;15.70;;;23.00;99.90;;;;;;4880254;29;20507;-81
2021/09/02 06:14:57;;;;;;;22.88;15.77;;;23.00;99.80;;;;;;4880137;29;20037;-81
2021/09/02 06:17:23;;;;;;;20.08;15.55;;;23.00;99.80;;;;;;4863591;29;20033;-82
2021/09/02 06:19:48;;;;;;;20.50;15.23;;;23.00;99.80;;;;;;4863619;29;20044;-82
2021/09/02 06:22:15;;;;;;;20.85;15.63;;;22.90;99.80;;;;;;4880219;29;20025;-81
2021/09/02 06:24:40;;;;;;;19.65;15.57;;;23.00;99.80;;;;;;4880332;29;20084;-82
2021/09/02 06:27:06;;;;;;;20.27;16.20;;;22.90;99.80;;;;;;4879726;29;20137;-81
2021/09/02 06:29:31;;;;;;;19.02;16.02;;;22.90;99.90;;;;;;4880417;29;20041;-81
2021/09/02 06:31:57;;;;;;;24.20;16.77;;;22.90;99.90;;;;;;4879967;29;20037;-82
2021/09/02 06:34:23;;;;;;;18.15;14.55;;;22.90;99.90;;;;;;4880245;29;20044;-81
2021/09/02 06:36:48;;;;;;;22.17;16.20;;;22.90;99.90;;;;;;4880236;29;20045;-84
2021/09/02 06:39:14;;;;;;;20.60;15.88;;;23.00;99.90;;;;;;4880227;29;20033;-82
2021/09/02 06:41:40;;;;;;;20.80;16.13;;;23.00;99.90;;;;;;4880122;29;20045;-82
2021/09/02 06:44:06;;;;;;;21.38;15.75;;;22.90;99.90;;;;;;4880123;29;20156;-82
2021/09/02 06:46:31;;;;;;;20.45;16.23;;;23.00;99.90;;;;;;4863450;29;20403;-82
2021/09/02 06:48:57;;;;;;;21.52;15.93;;;23.00;99.90;;;;;;4879175;29;20468;-82
2021/09/02 06:51:23;;;;;;;20.33;15.43;;;23.00;99.90;;;;;;4880245;29;20120;-81
2021/09/02 06:53:49;;;;;;;19.60;15.02;;;23.00;99.90;;;;;;4879914;29;20081;-82
2021/09/02 06:56:14;;;;;;;17.30;14.30;;;23.00;99.90;;;;;;4863020;29;20029;-83
2021/09/02 06:58:40;;;;;;;18.92;14.50;;;23.00;99.90;;;;;;4879356;29;20033;-82
2021/09/02 07:01:06;;;;;;;16.70;12.25;;;23.00;99.90;;;;;;4860911;29;20044;-82
2021/09/02 07:03:31;;;;;;;16.20;12.43;;;23.00;99.90;;;;;;4879703;29;20433;-82
2021/09/02 07:05:57;;;;;;;16.10;11.93;;;23.00;99.80;;;;;;4879764;29;20033;-82
2021/09/02 07:08:23;;;;;;;14.25;11.68;;;23.00;99.80;;;;;;4879756;29;20037;-82
2021/09/02 07:10:48;;;;;;;15.32;11.02;;;23.00;99.70;;;;;;4879528;29;20036;-82
2021/09/02 07:13:14;;;;;;;14.43;10.43;;;23.00;99.70;;;;;;4879403;29;20029;-81
2021/09/02 07:15:39;;;;;;;15.07;10.05;;;23.00;99.70;;;;;;4862608;29;20040;-82
2021/09/02 07:18:05;;;;;;;13.48;9.85;;;23.00;99.60;;;;;;4879583;29;20041;-82
2021/09/02 07:20:31;;;;;;;14.20;9.88;;;23.00;99.60;;;;;;4879618;29;20064;-82
2021/09/02 07:22:57;;;;;;;12.27;8.75;;;23.00;99.60;;;;;;4862213;29;20500;-83
2021/09/02 07:25:23;;;;;;;12.15;8.45;;;23.00;99.50;;;;;;4862725;29;20037;-82
2021/09/02 07:27:48;;;;;;;10.68;7.47;;;23.00;99.50;;;;;;4879136;29;20029;-82
2021/09/02 07:30:14;;;;;;;10.70;7.70;;;23.00;99.50;;;;;;4862230;29;20040;-82
2021/09/02 07:32:40;;;;;;;11.02;6.97;;;23.00;99.40;;;;;;4879620;29;20398;-82
2021/09/02 07:35:06;;;;;;;10.30;7.40;;;23.00;99.40;;;;;;4862317;29;20499;-82
2021/09/02 07:37:32;;;;;;;9.95;6.93;;;23.00;99.40;;;;;;4879049;29;20044;-82
2021/09/02 07:39:57;;;;;;;10.18;7.53;;;23.00;99.30;;;;;;4862371;29;20432;-83
2021/09/02 07:42:23;;;;;;;11.10;6.85;;;23.00;99.30;;;;;;4879296;29;20033;-81
2021/09/02 07:44:49;;;;;;;9.32;6.38;;;23.00;99.30;;;;;;4878599;29;20056;-82
2021/09/02 07:47:15;;;;;;;8.80;6.57;;;23.00;99.30;;;;;;4878837;29;20108;-82
2021/09/02 07:49:41;;;;;;;9.27;6.57;;;23.00;99.20;;;;;;4878483;29;20494;-82
2021/09/02 07:52:09;;;;;;;8.13;5.68;;;23.00;99.20;;;;;;4862308;29;20044;-82
2021/09/02 07:54:35;;;;;;;7.65;5.93;;;23.00;99.20;;;;;;4879110;29;20093;-82
2021/09/02 07:57:01;;;;;;;8.77;5.78;;;23.10;99.10;;;;;;4877972;29;20139;-81
2021/09/02 07:59:27;;;;;;;7.43;5.72;;;23.10;99.10;;;;;;4878126;29;20040;-81
2021/09/02 08:01:53;;;;;;;11.65;5.95;;;23.00;99.10;;;;;;4862268;29;20396;-81
2021/09/02 08:04:19;;;;;;;9.05;5.20;;;23.10;99.10;;;;;;4878830;29;20048;-81
2021/09/02 08:06:44;;;;;;;8.80;5.90;;;23.10;99.00;;;;;;4862445;29;20037;-81
2021/09/02 08:09:10;;;;;;;8.40;5.68;;;23.10;99.00;;;;;;4862891;29;20029;-81
2021/09/02 08:11:36;;;;;;;8.65;5.60;;;23.10;99.00;;;;;;4865781;29;20076;-82
2021/09/02 08:14:02;;;;;;;8.00;5.25;;;23.10;98.90;;;;;;4882284;29;20033;-83
2021/09/02 08:16:27;;;;;;;9.32;5.28;;;23.10;98.90;;;;;;4882818;29;20485;-82
2021/09/02 08:18:53;;;;;;;9.32;5.03;;;23.10;98.90;;;;;;4882653;29;20391;-82
2021/09/02 08:21:19;;;;;;;9.40;5.43;;;23.10;98.80;;;;;;4882019;29;20041;-82
2021/09/02 08:23:45;;;;;;;9.32;5.68;;;23.10;98.80;;;;;;4882288;29;20064;-82
2021/09/02 08:26:11;;;;;;;7.43;4.50;;;23.10;98.80;;;;;;4882255;29;20041;-82
2021/09/02 08:28:36;;;;;;;8.52;5.13;;;23.10;98.70;;;;;;4865855;29;20468;-82
2021/09/02 08:31:02;;;;;;;8.68;4.57;;;23.10;98.70;;;;;;4881969;29;20043;-84
2021/09/02 08:33:28;;;;;;;7.57;4.40;;;23.10;98.70;;;;;;4882152;29;20112;-82
2021/09/02 08:35:54;;;;;;;7.25;4.75;;;23.10;98.70;;;;;;4865948;29;20116;-82
2021/09/02 08:38:20;;;;;;;9.10;5.22;;;23.10;98.70;;;;;;4882032;29;20115;-82
2021/09/02 08:40:47;;;;;;;8.75;4.90;;;23.10;98.60;;;;;;4882262;29;20048;-82
2021/09/02 08:43:13;;;;;;;6.78;4.55;;;23.10;98.60;;;;;;4865008;29;20491;-83
2021/09/02 08:45:39;;;;;;;6.70;3.83;;;23.10;98.60;;;;;;4882098;29;20029;-82
2021/09/02 08:48:06;;;;;;;7.18;3.95;;;23.10;98.50;;;;;;4865227;29;20029;-82
2021/09/02 08:50:36;;;;;;;7.93;4.40;;;23.20;98.70;;;;;;4865284;29;20084;-82
2021/09/02 08:53:03;;;;;;;9.95;4.53;;;23.20;98.40;;;;;;4881809;29;20029;-82
2021/09/02 08:55:29;;;;;;;7.63;4.28;;;23.20;98.40;;;;;;4880396;29;20037;-82
2021/09/02 08:57:56;;;;;;;6.75;4.00;;;23.20;98.40;;;;;;4882033;29;20025;-82
2021/09/02 09:00:23;;;;;;;9.00;4.70;;;23.20;98.40;;;;;;4881582;29;20044;-81
2021/09/02 09:03:00;;;;;;;6.57;4.03;;;23.20;98.30;;;;;;4881963;29;20033;-81
2021/09/02 09:05:28;;;;;;;8.88;5.00;;;23.20;98.30;;;;;;4880981;29;20472;-82
2021/09/02 09:07:53;;;;;;;6.70;4.40;;;23.20;98.20;;;;;;4881740;29;20045;-81
2021/09/02 09:10:29;;;;;;;7.72;4.90;;;23.20;98.20;;;;;;4864951;29;20041;-81
2021/09/02 09:13:00;;;;;;;6.90;4.05;;;23.20;98.20;;;;;;4881760;29;20037;-82
2021/09/02 09:15:41;;;;;;;7.03;4.30;;;23.20;98.20;;;;;;4864648;29;20802;-82
2021/09/02 09:18:39;;;;;;;8.05;4.28;;;23.20;98.10;;;;;;4881871;29;20033;-87
2021/09/02 09:21:13;;;;;;;7.47;4.60;;;23.30;98.20;;;;;;4880096;29;20041;-81
2021/09/02 09:24:02;;;;;;;9.05;5.00;;;23.30;98.10;;;;;;4864492;29;20143;-82
2021/09/02 09:26:29;;;;;;;7.85;4.75;;;23.20;98.00;;;;;;4881286;29;20044;-83
2021/09/02 09:28:57;;;;;;;6.18;4.28;;;23.30;98.00;;;;;;4881637;29;20502;-81
2021/09/02 09:31:43;;;;;;;6.95;4.00;;;23.20;98.00;;;;;;4881377;29;20072;-81
2021/09/02 09:34:09;;;;;;;7.43;4.35;;;23.20;98.00;;;;;;4881041;29;20056;-87
2021/09/02 09:36:38;;;;;;;8.70;4.88;;;23.20;98.00;;;;;;4880973;29;20029;-82
2021/09/02 09:39:12;;;;;;;7.18;4.63;;;23.20;98.00;;;;;;4880947;29;20061;-83
2021/09/02 09:41:42;;;;;;;8.60;5.32;;;23.20;98.00;;;;;;4863951;29;20494;-81
2021/09/02 09:44:25;;;;;;;8.98;4.68;;;23.20;98.00;;;;;;4863869;29;20033;-80
2021/09/02 09:47:09;;;;;;;9.52;5.43;;;23.10;98.00;;;;;;4881000;29;20037;-81
2021/09/02 09:49:47;;;;;;;7.45;5.50;;;23.10;98.00;;;;;;4881302;29;20036;-82
2021/09/02 09:52:16;;;;;;;7.70;5.47;;;23.10;98.00;;;;;;4880901;29;20041;-82
2021/09/02 09:54:42;;;;;;;7.82;4.97;;;23.10;98.00;;;;;;4881090;29;20072;-81
2021/09/02 09:57:08;;;;;;;8.60;5.15;;;23.10;98.00;;;;;;4880613;29;20065;-82
2021/09/02 09:59:34;;;;;;;7.50;5.40;;;23.00;98.00;;;;;;4880887;29;20036;-82
2021/09/02 10:02:00;;;;;;;9.02;5.35;;;23.00;98.00;;;;;;4880897;29;20544;-81
2021/09/02 10:04:26;;;;;;;8.05;5.18;;;23.00;98.00;;;;;;4880365;29;20041;-82
2021/09/02 10:06:52;;;;;;;8.23;5.53;;;23.00;98.00;;;;;;4864295;29;20145;-81
2021/09/02 10:09:18;;;;;;;9.60;5.28;;;23.00;98.00;;;;;;4861161;29;20544;-82
2021/09/02 10:11:45;;;;;;;8.70;5.47;;;23.00;98.10;;;;;;4863953;29;20045;-81
2021/09/02 10:14:11;;;;;;;8.05;5.57;;;22.90;98.10;;;;;;4880367;29;20540;-81
2021/09/02 10:16:37;;;;;;;7.75;5.00;;;23.00;98.10;;;;;;4863556;29;20029;-81
2021/09/02 10:19:03;;;;;;;8.40;5.15;;;22.90;98.10;;;;;;4864244;29;20120;-81
2021/09/02 10:21:29;;;;;;;7.65;4.72;;;22.90;98.10;;;;;;4880224;29;20173;-81
2021/09/02 10:23:54;;;;;;;7.43;5.05;;;22.90;98.10;;;;;;4880341;29;20487;-81
2021/09/02 10:26:32;;;;;;;7.35;5.20;;;22.90;98.10;;;;;;4880289;29;20044;-81
2021/09/02 10:28:57;;;;;;;8.38;4.93;;;22.90;98.10;;;;;;4864024;29;20092;-81
2021/09/02 10:31:23;;;;;;;6.15;4.68;;;22.90;98.10;;;;;;4879612;29;20123;-81
2021/09/02 10:33:50;;;;;;;7.07;5.30;;;22.90;98.10;;;;;;4878982;29;20029;-81
2021/09/02 10:36:15;;;;;;;7.38;5.15;;;23.00;98.10;;;;;;4863853;29;20052;-82
2021/09/02 10:38:51;;;;;;;6.57;4.78;;;23.00;98.10;;;;;;4879898;29;20064;-81
2021/09/02 10:41:39;;;;;;;6.80;4.88;;;23.00;98.20;;;;;;4879930;29;20040;-88
2021/09/02 10:44:10;;;;;;;6.93;5.05;;;23.00;98.20;;;;;;4880282;29;20052;-81
2021/09/02 10:46:53;;;;;;;7.45;5.53;;;23.00;98.10;;;;;;4879214;29;20112;-81
2021/09/02 10:49:31;;;;;;;6.22;4.80;;;23.00;98.20;;;;;;4878491;29;20029;-83
2021/09/02 10:52:29;;;;;;;9.00;5.57;;;23.00;98.10;;;;;;4880071;29;20058;-81
2021/09/02 10:55:15;;;;;;;6.95;5.00;;;23.00;98.10;;;;;;4879652;29;20099;-81
2021/09/02 10:57:40;;;;;;;5.70;4.65;;;23.10;98.10;;;;;;4862431;29;20037;-81
2021/09/02 11:00:07;;;;;;;5.20;4.70;;;23.10;98.10;;;;;;4862850;29;20093;-81
2021/09/02 11:02:42;;;;;;;6.80;4.80;;;23.10;98.10;;;;;;4879560;29;20120;-81
2021/09/02 11:05:09;;;;;;;6.43;4.57;;;23.10;98.10;;;;;;4879909;29;20047;-81
2021/09/02 11:07:37;;;;;;;8.88;4.43;;;23.10;98.10;;;;;;4879136;29;20037;-81
2021/09/02 11:10:12;;;;;;;6.28;4.50;;;23.10;98.10;;;;;;4879706;29;20093;-81
2021/09/02 11:12:37;;;;;;;6.43;5.07;;;23.10;98.10;;;;;;4879076;29;20499;-81
2021/09/02 11:15:04;;;;;;;5.82;4.25;;;23.10;98.00;;;;;;4879069;29;20029;-82
2021/09/02 11:17:29;;;;;;;6.40;4.55;;;23.10;98.00;;;;;;4862441;29;20116;-81
2021/09/02 11:19:55;;;;;;;7.05;4.50;;;23.10;98.00;;;;;;4862613;29;20531;-81
2021/09/02 11:22:21;;;;;;;6.15;4.63;;;23.10;98.00;;;;;;4879759;29;20041;-85
2021/09/02 11:24:51;;;;;;;6.05;4.40;;;23.10;98.00;;;;;;4879330;29;20101;-81
2021/09/02 11:27:30;;;;;;;5.10;4.38;;;23.10;98.00;;;;;;4862812;29;20025;-81
2021/09/02 11:30:15;;;;;;;6.90;4.55;;;23.10;98.00;;;;;;4862099;29;20137;-81
2021/09/02 11:32:41;;;;;;;7.47;5.13;;;23.10;98.00;;;;;;4862256;29;20097;-85
2021/09/02 11:35:07;;;;;;;6.95;4.85;;;23.10;97.90;;;;;;4878899;29;20452;-80
2021/09/02 11:37:40;;;;;;;6.10;4.00;;;23.10;97.90;;;;;;4862354;29;20044;-81
2021/09/02 11:40:08;;;;;;;6.57;4.97;;;23.10;97.90;;;;;;4878981;29;20037;-82
2021/09/02 11:42:34;;;;;;;6.25;4.47;;;23.20;97.90;;;;;;4876588;29;20048;-83
2021/09/02 11:45:00;;;;;;;7.07;4.78;;;23.20;97.90;;;;;;4876516;29;20033;-82
2021/09/02 11:47:36;;;;;;;6.15;4.75;;;23.20;97.90;;;;;;4861664;29;20392;-82
2021/09/02 11:50:06;;;;;;;6.70;4.68;;;23.10;97.90;;;;;;4862033;29;20124;-82
2021/09/02 11:52:43;;;;;;;5.07;4.57;;;23.20;97.90;;;;;;4878761;29;20029;-82
2021/09/02 11:55:30;;;;;;;6.60;4.65;;;23.10;97.90;;;;;;4862587;29;20092;-84
2021/09/02 11:58:01;;;;;;;6.75;4.45;;;23.10;97.90;;;;;;4879189;29;20036;-84
2021/09/02 12:00:28;;;;;;;6.70;4.55;;;23.20;97.90;;;;;;4878573;29;20044;-85
2021/09/02 12:02:58;;;;;;;8.93;5.03;;;23.20;97.80;;;;;;4879045;29;20029;-84
2021/09/02 12:05:51;;;;;;;5.80;4.10;;;23.20;97.80;;;;;;4879078;29;20070;-84
2021/09/02 12:08:17;;;;;;;5.18;4.20;;;23.20;97.80;;;;;;4862276;29;20076;-83
2021/09/02 12:10:46;;;;;;;7.63;4.40;;;23.20;97.80;;;;;;4861996;29;20061;-83
2021/09/02 12:13:24;;;;;;;5.22;4.55;;;23.20;97.90;;;;;;4879275;29;20391;-83
2021/09/02 12:16:06;;;;;;;5.90;4.70;;;23.20;98.00;;;;;;4878741;29;20041;-82
2021/09/02 12:18:32;;;;;;;5.82;4.45;;;23.20;98.00;;;;;;4876016;29;20024;-83
2021/09/02 12:21:11;;;;;;;5.95;4.50;;;23.20;98.00;;;;;;4879054;29;20069;-83
2021/09/02 12:23:47;;;;;;;6.10;4.45;;;23.20;98.10;;;;;;4878152;29;20081;-84
2021/09/02 12:26:13;;;;;;;4.65;4.20;;;23.20;98.10;;;;;;4878709;29;20033;-84
2021/09/02 12:28:43;;;;;;;6.15;4.28;;;23.20;98.20;;;;;;4878623;29;20082;-84
2021/09/02 12:31:16;;;;;;;6.45;5.03;;;23.20;98.20;;;;;;4862347;29;20033;-84
2021/09/02 12:34:06;;;;;;;7.63;4.32;;;23.10;98.30;;;;;;4878712;29;20472;-84
2021/09/02 12:36:41;;;;;;;6.82;4.90;;;23.10;98.30;;;;;;4878768;29;20036;-85
2021/09/02 12:39:12;;;;;;;8.23;4.53;;;23.10;98.30;;;;;;4878520;29;20044;-83